Time;durP1;ratioP1;P1;durP2;ratioP2;P2;SDS_P1;SDS_P2;PMS_P1;PMS_P2;Temp;Humidity;BMP_temperature;BMP_pressure;BME280_temperature;BME280_humidity;BME280_pressure;Samples;Min_cycle;Max_cycle;Signal;HPM_P1;HPM_P2
2023/12/20 00:01:49;;;;;;;11.93;2.90;;;7.40;99.90;;;6.62;100.00;102361.91;4168195;28;20025;-76
2023/12/20 00:03:50;;;;;;;7.13;1.80;;;7.40;99.90;;;6.55;100.00;102363.19;4169263;28;20025;-76
2023/12/20 00:05:51;;;;;;;9.20;1.77;;;7.30;99.90;;;6.59;100.00;102366.47;4169044;28;20048;-76
2023/12/20 00:07:51;;;;;;;7.13;1.45;;;7.30;99.90;;;6.55;100.00;102367.59;4184295;28;20036;-76
2023/12/20 00:09:52;;;;;;;7.53;1.40;;;7.20;99.90;;;6.45;100.00;102372.50;4169346;28;20495;-76
2023/12/20 00:11:53;;;;;;;6.95;1.85;;;7.20;99.90;;;6.41;100.00;102367.56;4184358;28;20025;-76
2023/12/20 00:13:54;;;;;;;7.13;1.52;;;7.10;99.90;;;6.28;100.00;102356.94;4158233;28;20563;-76
2023/12/20 00:15:55;;;;;;;9.70;1.83;;;7.00;99.90;;;6.44;100.00;102370.00;4181824;28;20025;-76
2023/12/20 00:17:56;;;;;;;8.75;1.05;;;7.00;99.90;;;6.43;100.00;102366.53;4169000;28;20050;-76
2023/12/20 00:19:56;;;;;;;5.30;1.23;;;7.10;99.90;;;6.43;100.00;102363.06;4168997;28;20028;-76
2023/12/20 00:21:59;;;;;;;9.95;1.77;;;7.10;99.90;;;6.41;100.00;102365.78;4168708;28;20030;-76
2023/12/20 00:24:00;;;;;;;14.23;2.75;;;7.10;99.90;;;6.45;100.00;102363.84;4190663;28;20028;-76
2023/12/20 00:26:01;;;;;;;5.05;1.63;;;7.10;99.90;;;6.39;100.00;102364.19;4167923;28;20029;-76
2023/12/20 00:28:02;;;;;;;8.68;1.42;;;7.10;99.90;;;6.32;100.00;102368.94;4167849;28;20037;-76
2023/12/20 00:30:03;;;;;;;8.75;1.50;;;7.10;99.90;;;6.25;100.00;102375.47;4168873;28;20029;-76
2023/12/20 00:32:04;;;;;;;8.55;2.17;;;6.90;99.90;;;6.19;100.00;102373.19;4200699;28;20029;-76
2023/12/20 00:34:05;;;;;;;8.73;1.88;;;6.90;99.90;;;6.15;100.00;102387.41;4200680;28;20108;-75
2023/12/20 00:36:06;;;;;;;9.95;1.63;;;6.90;99.90;;;6.09;100.00;102385.16;4168668;28;20029;-76
2023/12/20 00:38:08;;;;;;;5.28;1.40;;;6.80;99.90;;;6.12;100.00;102374.50;4167727;28;20071;-76
2023/12/20 00:40:10;;;;;;;8.23;1.95;;;6.80;99.90;;;6.13;100.00;102391.88;4168623;28;20032;-76
2023/12/20 00:42:11;;;;;;;13.45;3.08;;;6.70;99.90;;;6.13;100.00;102391.88;4167755;28;20464;-76
2023/12/20 00:44:11;;;;;;;10.15;1.80;;;6.70;99.90;;;6.11;100.00;102388.50;4168686;28;20036;-76
2023/12/20 00:46:12;;;;;;;8.43;1.92;;;6.70;99.90;;;6.07;100.00;102385.22;4168617;28;20025;-76
2023/12/20 00:48:13;;;;;;;10.27;2.47;;;6.70;99.90;;;6.03;100.00;102390.72;4167641;28;20014;-76
2023/12/20 00:50:14;;;;;;;6.65;1.77;;;6.60;99.90;;;5.98;100.00;102379.66;4167619;28;20037;-76
2023/12/20 00:52:17;;;;;;;9.13;2.30;;;6.70;99.90;;;6.07;100.00;102394.84;4168428;28;20021;-76
2023/12/20 00:54:18;;;;;;;8.15;1.83;;;6.70;99.90;;;6.15;100.00;102392.66;4168752;28;20447;-76
2023/12/20 00:56:18;;;;;;;11.93;2.30;;;6.80;99.90;;;6.25;100.00;102391.19;4167459;28;20075;-76
2023/12/20 00:58:19;;;;;;;7.32;1.48;;;6.90;99.90;;;6.32;100.00;102387.28;4168600;28;20097;-76
2023/12/20 01:00:20;;;;;;;5.45;1.60;;;6.90;99.90;;;6.35;100.00;102383.63;4200506;28;20028;-76
2023/12/20 01:02:21;;;;;;;7.72;1.50;;;7.00;99.90;;;6.38;100.00;102393.94;4167508;28;20037;-75
2023/12/20 01:04:22;;;;;;;7.57;1.60;;;7.00;99.90;;;6.41;100.00;102397.25;4168480;28;20029;-76
2023/12/20 01:06:23;;;;;;;5.47;1.40;;;7.10;99.90;;;6.41;100.00;102393.78;4168212;28;20033;-76
2023/12/20 01:08:23;;;;;;;9.15;2.00;;;7.10;99.90;;;6.40;100.00;102392.06;4167328;28;20040;-76
2023/12/20 01:10:27;;;;;;;6.60;1.60;;;7.10;99.90;;;6.47;100.00;102396.88;4168673;28;20026;-76
2023/12/20 01:12:28;;;;;;;9.80;2.03;;;7.20;99.90;;;6.55;100.00;102394.66;4168538;28;20014;-76
2023/12/20 01:14:29;;;;;;;8.25;2.75;;;7.30;99.90;;;6.68;100.00;102400.88;4156037;28;20037;-76
2023/12/20 01:16:30;;;;;;;5.50;1.20;;;7.30;99.90;;;6.78;100.00;102410.81;4168020;28;20025;-76
2023/12/20 01:18:31;;;;;;;7.97;1.75;;;7.40;99.90;;;6.87;100.00;102415.53;4150854;28;20038;-76
2023/12/20 01:20:32;;;;;;;8.38;1.98;;;7.50;99.90;;;6.94;100.00;102417.69;4168428;28;20489;-76
2023/12/20 01:22:35;;;;;;;6.85;1.98;;;7.50;99.90;;;6.97;100.00;102416.63;4168163;28;20022;-75
2023/12/20 01:24:36;;;;;;;11.38;1.42;;;7.60;99.90;;;6.99;100.00;102418.22;4156791;28;20087;-76
2023/12/20 01:26:38;;;;;;;7.53;1.05;;;7.60;99.90;;;6.98;100.00;102423.59;4175447;28;20045;-76
2023/12/20 01:28:39;;;;;;;7.65;2.42;;;7.60;99.90;;;6.95;100.00;102418.53;4167278;28;20374;-76
2023/12/20 01:30:40;;;;;;;13.27;2.03;;;7.60;99.90;;;6.94;100.00;102422.06;4168250;28;20029;-76
2023/12/20 01:32:41;;;;;;;10.38;1.88;;;7.50;99.90;;;6.87;100.00;102421.59;4168496;28;20374;-76
2023/12/20 01:34:41;;;;;;;6.35;1.90;;;7.50;99.90;;;6.78;100.00;102418.69;4163566;28;20041;-76
2023/12/20 01:36:43;;;;;;;7.55;1.40;;;7.40;99.90;;;6.70;100.00;102421.75;4153681;28;20026;-76
2023/12/20 01:38:43;;;;;;;7.93;1.30;;;7.40;99.90;;;6.61;100.00;102425.75;4171328;28;20033;-75
2023/12/20 01:40:44;;;;;;;12.95;2.80;;;7.30;99.90;;;6.50;100.00;102422.91;4170571;28;20018;-75
2023/12/20 01:42:45;;;;;;;8.88;1.65;;;7.30;99.90;;;6.42;100.00;102429.53;4171539;28;20029;-76
2023/12/20 01:44:47;;;;;;;9.40;1.42;;;7.10;99.90;;;6.34;100.00;102431.72;4171333;28;20025;-76
2023/12/20 01:46:48;;;;;;;7.25;2.05;;;7.00;99.90;;;6.28;100.00;102432.94;4169872;28;20068;-76
2023/12/20 01:48:49;;;;;;;13.07;2.28;;;7.00;99.90;;;6.23;100.00;102428.88;4170300;28;20025;-76
2023/12/20 01:50:51;;;;;;;9.25;2.33;;;6.90;99.90;;;6.10;100.00;102431.34;4171188;28;20037;-76
2023/12/20 01:52:57;;;;;;;7.13;1.50;;;6.90;99.90;;;6.08;100.00;102435.84;4169500;28;20563;-76
2023/12/20 01:55:02;;;;;;;8.93;2.42;;;6.80;99.90;;;6.02;100.00;102437.03;4171252;28;20116;-76
2023/12/20 01:57:04;;;;;;;8.30;1.52;;;6.70;99.90;;;5.98;100.00;102427.66;4171384;28;20040;-76
2023/12/20 01:59:06;;;;;;;8.90;1.40;;;6.70;99.90;;;5.93;100.00;102432.31;4170061;28;20037;-76
2023/12/20 02:01:07;;;;;;;6.53;1.95;;;6.70;99.90;;;5.93;100.00;102437.53;4170099;28;20029;-75
2023/12/20 02:03:08;;;;;;;9.38;2.10;;;6.60;99.90;;;5.91;100.00;102436.75;4170048;28;20395;-76
2023/12/20 02:05:10;;;;;;;9.50;1.40;;;6.60;99.90;;;5.83;100.00;102440.69;4171236;28;20029;-76
2023/12/20 02:07:12;;;;;;;5.82;1.45;;;6.50;99.90;;;5.81;100.00;102442.56;4171003;28;20079;-76
2023/12/20 02:09:13;;;;;;;8.38;1.88;;;6.50;99.90;;;5.75;100.00;102449.00;4171167;28;20065;-76
2023/12/20 02:11:14;;;;;;;7.22;1.42;;;6.50;99.90;;;5.68;100.00;102446.78;4170956;28;20030;-76
2023/12/20 02:13:14;;;;;;;7.55;1.30;;;6.40;99.90;;;5.66;100.00;102459.09;4183721;28;20025;-76
2023/12/20 02:15:15;;;;;;;5.10;1.85;;;6.40;99.90;;;5.68;100.00;102454.63;4161932;28;20029;-76
2023/12/20 02:17:17;;;;;;;6.55;1.20;;;6.40;99.90;;;5.64;100.00;102460.97;4169748;28;20079;-76
2023/12/20 02:19:19;;;;;;;10.48;2.03;;;6.40;99.90;;;5.58;100.00;102457.72;4170785;28;20038;-76
2023/12/20 02:21:34;;;;;;;18.92;2.17;;;6.30;99.90;;;5.66;100.00;102453.88;4169596;28;20037;-76
2023/12/20 02:23:35;;;;;;;4.38;1.17;;;6.30;99.90;;;5.61;100.00;102454.13;4169653;28;20029;-75
2023/12/20 02:25:37;;;;;;;6.75;1.27;;;6.30;99.90;;;5.59;100.00;102454.19;4170917;28;20072;-76
2023/12/20 02:27:39;;;;;;;5.70;1.67;;;6.30;99.90;;;5.57;100.00;102453.44;4170901;28;20018;-76
2023/12/20 02:29:40;;;;;;;9.75;1.98;;;6.30;99.90;;;5.55;100.00;102447.44;4170768;28;20029;-76
2023/12/20 02:31:41;;;;;;;9.98;3.15;;;6.30;99.90;;;5.54;100.00;102448.38;4202864;28;20102;-76
2023/12/20 02:33:42;;;;;;;8.60;3.15;;;6.30;99.90;;;5.51;100.00;102450.31;4164870;28;20038;-76
2023/12/20 02:35:43;;;;;;;10.55;2.47;;;6.20;99.90;;;5.50;100.00;102443.38;4170334;28;20029;-76
2023/12/20 02:37:43;;;;;;;14.30;2.50;;;6.20;99.90;;;5.48;100.00;102461.78;4170681;28;20021;-76
2023/12/20 02:39:44;;;;;;;9.90;2.47;;;6.20;99.90;;;5.52;100.00;102455.47;4169440;28;20033;-76
2023/12/20 02:41:45;;;;;;;11.02;2.53;;;6.20;99.90;;;5.49;100.00;102457.41;4169337;28;20025;-76
2023/12/20 02:43:46;;;;;;;7.97;2.00;;;6.20;99.90;;;5.53;100.00;102454.53;4170351;28;20026;-75
2023/12/20 02:45:47;;;;;;;7.70;2.28;;;6.20;99.90;;;5.47;100.00;102454.84;4169654;28;20029;-76
2023/12/20 02:47:47;;;;;;;11.35;2.67;;;6.20;99.90;;;5.48;100.00;102459.16;4170267;28;20026;-76
2023/12/20 02:49:49;;;;;;;8.60;1.92;;;6.20;99.90;;;5.44;100.00;102464.63;4170472;28;20033;-76
2023/12/20 02:51:49;;;;;;;9.20;1.70;;;6.20;99.90;;;5.38;100.00;102454.47;4168476;28;20026;-76
2023/12/20 02:53:50;;;;;;;6.90;1.50;;;6.10;99.90;;;5.37;100.00;102452.81;4170376;28;20492;-76
2023/12/20 02:55:51;;;;;;;6.10;1.50;;;6.10;99.90;;;5.42;100.00;102458.63;4202392;28;20036;-76
2023/12/20 02:57:52;;;;;;;9.77;1.95;;;6.10;99.90;;;5.38;100.00;102444.88;4185605;28;20031;-76
2023/12/20 02:59:53;;;;;;;8.05;1.83;;;6.10;99.90;;;5.33;100.00;102432.97;4168966;28;20038;-76
2023/12/20 03:01:54;;;;;;;5.35;2.05;;;6.10;99.90;;;5.27;100.00;102436.75;4202137;28;20013;-76
2023/12/20 03:03:55;;;;;;;14.80;2.35;;;6.00;99.90;;;5.19;100.00;102433.69;4170291;28;20032;-75
2023/12/20 03:05:56;;;;;;;12.40;2.30;;;5.90;99.90;;;5.17;100.00;102434.72;4168804;28;20030;-76
2023/12/20 03:07:56;;;;;;;11.43;1.65;;;5.90;99.90;;;5.15;100.00;102449.63;4170060;28;20026;-76
2023/12/20 03:09:57;;;;;;;9.35;1.98;;;5.90;99.90;;;5.14;100.00;102450.56;4185428;28;20460;-76
2023/12/20 03:11:58;;;;;;;5.32;1.88;;;5.90;99.90;;;5.11;100.00;102450.72;4168988;28;20123;-76
2023/12/20 03:13:59;;;;;;;11.52;1.58;;;5.80;99.90;;;5.11;100.00;102451.53;4162622;28;20030;-76
2023/12/20 03:16:00;;;;;;;13.27;1.88;;;5.80;99.90;;;5.09;100.00;102450.78;4168474;28;20033;-76
2023/12/20 03:18:01;;;;;;;8.40;1.95;;;5.80;99.90;;;5.09;100.00;102448.16;4168394;28;20513;-76
2023/12/20 03:20:02;;;;;;;9.52;1.50;;;5.90;99.90;;;5.16;100.00;102449.56;4178456;28;20374;-76
2023/12/20 03:22:03;;;;;;;4.60;1.85;;;5.90;99.90;;;5.17;100.00;102450.41;4169428;28;20037;-77
2023/12/20 03:24:04;;;;;;;6.63;1.88;;;5.90;99.90;;;5.21;100.00;102452.78;4168160;28;20068;-76
2023/12/20 03:26:09;;;;;;;9.48;2.42;;;5.90;99.90;;;5.18;100.00;102444.22;4169874;28;20052;-76
2023/12/20 03:28:09;;;;;;;6.65;1.77;;;5.90;99.90;;;5.22;100.00;102454.47;4168760;28;20049;-76
2023/12/20 03:30:11;;;;;;;11.60;2.42;;;5.90;99.90;;;5.29;100.00;102455.81;4185124;28;20483;-76
2023/12/20 03:32:11;;;;;;;11.52;2.58;;;6.00;99.90;;;5.45;100.00;102450.63;4169674;28;20029;-76
2023/12/20 03:34:12;;;;;;;7.80;1.55;;;6.10;99.90;;;5.62;100.00;102452.34;4197050;28;20025;-76
2023/12/20 03:36:13;;;;;;;9.05;1.65;;;6.20;99.90;;;5.76;100.00;102457.69;4168568;28;20037;-76
2023/12/20 03:38:14;;;;;;;5.60;1.63;;;6.40;99.90;;;5.88;100.00;102457.91;4168446;28;20025;-76
2023/12/20 03:40:15;;;;;;;10.35;1.95;;;6.50;99.90;;;5.97;100.00;102459.19;4168357;28;20029;-76
2023/12/20 03:42:16;;;;;;;9.05;1.80;;;6.60;99.90;;;6.03;100.00;102457.03;4168551;28;20061;-76
2023/12/20 03:44:16;;;;;;;8.45;2.00;;;6.60;99.90;;;6.09;100.00;102461.13;4167889;28;20013;-76
2023/12/20 03:46:17;;;;;;;6.60;1.48;;;6.70;99.90;;;6.16;100.00;102469.44;4169615;28;20029;-76
2023/12/20 03:48:18;;;;;;;5.82;1.48;;;6.80;99.90;;;6.15;100.00;102457.31;4168304;28;20509;-76
2023/12/20 03:50:19;;;;;;;7.55;1.25;;;6.80;99.90;;;6.10;100.00;102458.41;4169636;28;20026;-76
2023/12/20 03:52:20;;;;;;;6.90;1.60;;;6.80;99.90;;;6.09;100.00;102461.13;4169270;28;20071;-76
2023/12/20 03:54:20;;;;;;;5.85;1.40;;;6.80;99.90;;;6.06;100.00;102462.09;4168307;28;20025;-76
2023/12/20 03:56:21;;;;;;;8.15;2.35;;;6.80;99.90;;;6.02;100.00;102462.38;4169422;28;20022;-76
2023/12/20 03:58:22;;;;;;;6.28;1.73;;;6.70;99.90;;;5.97;100.00;102454.75;4169104;28;20039;-76
2023/12/20 04:00:23;;;;;;;3.63;1.20;;;6.70;99.90;;;5.84;100.00;102453.72;4169353;28;20052;-76
2023/12/20 04:02:24;;;;;;;9.95;1.60;;;6.60;99.90;;;5.78;100.00;102454.06;4169301;28;20034;-76
2023/12/20 04:04:24;;;;;;;6.47;1.65;;;6.50;99.90;;;5.71;100.00;102449.22;4167998;28;20512;-76
2023/12/20 04:06:25;;;;;;;7.38;2.10;;;6.50;99.90;;;5.74;100.00;102451.66;4168902;28;20033;-76
2023/12/20 04:08:26;;;;;;;7.15;2.78;;;6.50;99.90;;;5.71;100.00;102451.84;4169278;28;20032;-76
2023/12/20 04:10:27;;;;;;;7.53;1.20;;;6.40;99.90;;;5.71;100.00;102462.31;4169383;28;20033;-76
2023/12/20 04:12:28;;;;;;;6.13;1.63;;;6.40;99.90;;;5.70;100.00;102456.25;4167998;28;20370;-76
2023/12/20 04:14:29;;;;;;;9.60;1.25;;;6.40;99.90;;;5.67;100.00;102445.94;4160340;28;20113;-76
2023/12/20 04:16:30;;;;;;;10.05;1.70;;;6.40;99.90;;;5.68;100.00;102446.78;4167882;28;20026;-76
2023/12/20 04:18:31;;;;;;;3.92;1.05;;;6.40;99.90;;;5.62;100.00;102444.47;4167901;28;20025;-76
2023/12/20 04:20:32;;;;;;;9.35;1.77;;;6.40;99.90;;;5.63;100.00;102433.94;4167678;28;20026;-76
2023/12/20 04:22:33;;;;;;;12.52;2.25;;;6.30;99.90;;;5.61;100.00;102429.72;4167718;28;20030;-76
2023/12/20 04:24:34;;;;;;;7.68;1.60;;;6.30;99.90;;;5.65;100.00;102441.69;4167763;28;20029;-76
2023/12/20 04:26:35;;;;;;;10.10;2.30;;;6.30;99.90;;;5.57;100.00;102442.13;4169020;28;20030;-76
2023/12/20 04:28:36;;;;;;;6.15;1.33;;;6.30;99.90;;;5.49;100.00;102426.84;4168977;28;20031;-76
2023/12/20 04:30:36;;;;;;;7.75;1.40;;;6.30;99.90;;;5.49;100.00;102431.22;4167608;28;20025;-76
2023/12/20 04:32:37;;;;;;;6.13;2.35;;;6.20;99.90;;;5.43;100.00;102421.94;4169087;28;20025;-76
2023/12/20 04:34:39;;;;;;;5.60;1.25;;;6.20;99.90;;;5.47;100.00;102433.06;4163584;28;20017;-76
2023/12/20 04:36:40;;;;;;;5.20;1.52;;;6.20;99.90;;;5.54;100.00;102440.53;4168795;28;20025;-76
2023/12/20 04:38:41;;;;;;;9.23;2.05;;;6.30;99.90;;;5.66;100.00;102440.78;4168682;28;20022;-75
2023/12/20 04:40:41;;;;;;;6.45;1.33;;;6.30;99.90;;;5.74;100.00;102435.97;4168966;28;20025;-76
2023/12/20 04:42:42;;;;;;;7.15;1.52;;;6.50;99.90;;;5.89;100.00;102435.16;4168893;28;20036;-76
2023/12/20 04:44:43;;;;;;;8.43;1.35;;;6.50;99.90;;;6.01;100.00;102450.19;4167572;28;20026;-76
2023/12/20 04:46:44;;;;;;;6.30;1.85;;;6.60;99.90;;;6.11;100.00;102444.38;4168508;28;20032;-76
2023/12/20 04:48:45;;;;;;;6.40;1.75;;;6.70;99.90;;;6.19;100.00;102446.56;4167716;28;20022;-76
2023/12/20 04:50:46;;;;;;;9.90;1.73;;;6.80;99.90;;;6.21;100.00;102441.25;4168541;28;20025;-76
2023/12/20 04:52:47;;;;;;;6.82;1.30;;;6.80;99.90;;;6.23;100.00;102449.84;4166926;28;20028;-76
2023/12/20 04:54:48;;;;;;;9.13;1.95;;;6.90;99.90;;;6.24;100.00;102446.31;4156079;28;20402;-76
2023/12/20 04:56:49;;;;;;;11.02;1.88;;;6.90;99.90;;;6.17;100.00;102444.97;4168425;28;20029;-76
2023/12/20 04:58:50;;;;;;;6.55;1.15;;;6.80;99.90;;;6.07;100.00;102448.09;4168701;28;20083;-76
2023/12/20 05:00:51;;;;;;;8.43;1.70;;;6.80;99.90;;;6.02;100.00;102446.66;4168489;28;20029;-76
2023/12/20 05:02:52;;;;;;;11.98;2.03;;;6.70;99.90;;;5.91;100.00;102441.19;4168592;28;20078;-76
2023/12/20 05:04:52;;;;;;;10.13;1.50;;;6.70;99.90;;;5.95;100.00;102453.16;4197049;28;20040;-76
2023/12/20 05:06:53;;;;;;;6.85;1.55;;;6.60;99.90;;;5.96;100.00;102462.72;4168402;28;20036;-76
2023/12/20 05:08:54;;;;;;;7.00;1.67;;;6.60;99.90;;;5.88;100.00;102455.28;4168659;28;20036;-76
2023/12/20 05:10:55;;;;;;;5.63;1.52;;;6.60;99.90;;;5.90;100.00;102456.03;4171841;28;20029;-76
2023/12/20 05:12:56;;;;;;;7.03;2.10;;;6.60;99.90;;;5.86;100.00;102459.75;4171803;28;20030;-76
2023/12/20 05:14:59;;;;;;;10.75;1.35;;;6.50;99.90;;;5.83;100.00;102451.16;4203695;28;20024;-76
2023/12/20 05:17:00;;;;;;;8.50;1.67;;;6.60;99.90;;;5.88;100.00;102464.91;4171839;28;20124;-76
2023/12/20 05:19:06;;;;;;;8.73;1.70;;;6.50;99.90;;;5.86;100.00;102464.97;4171718;28;20370;-76
2023/12/20 05:21:07;;;;;;;8.07;1.67;;;6.50;99.90;;;5.80;100.00;102467.06;4180815;28;20025;-76
2023/12/20 05:23:08;;;;;;;10.45;1.85;;;6.50;99.90;;;5.78;100.00;102467.16;4170784;28;20441;-76
2023/12/20 05:25:08;;;;;;;11.23;1.30;;;6.50;99.90;;;5.81;100.00;102471.38;4170295;28;20088;-76
2023/12/20 05:27:09;;;;;;;6.65;1.15;;;6.50;99.90;;;5.79;100.00;102460.16;4170261;28;20034;-76
2023/12/20 05:29:10;;;;;;;5.70;1.20;;;6.50;99.90;;;5.73;100.00;102455.25;4170395;28;20029;-76
2023/12/20 05:31:11;;;;;;;6.03;1.73;;;6.50;99.90;;;5.77;100.00;102459.38;4203145;28;20028;-76
2023/12/20 05:33:12;;;;;;;10.10;1.70;;;6.40;99.90;;;5.80;100.00;102464.44;4170561;28;20026;-76
2023/12/20 05:35:13;;;;;;;8.57;2.17;;;6.50;99.90;;;5.68;100.00;102455.47;4173536;28;20033;-76
2023/12/20 05:37:14;;;;;;;8.02;1.17;;;6.40;99.90;;;5.74;100.00;102457.75;4203157;28;20024;-76
2023/12/20 05:39:14;;;;;;;6.78;1.45;;;6.40;99.90;;;5.70;100.00;102463.25;4170413;28;20096;-76
2023/12/20 05:41:15;;;;;;;6.63;2.08;;;6.40;99.90;;;5.68;100.00;102457.25;4203515;28;20098;-76
2023/12/20 05:43:16;;;;;;;7.00;1.20;;;6.40;99.90;;;5.68;100.00;102462.47;4171559;28;20096;-76
2023/12/20 05:45:17;;;;;;;6.97;1.63;;;6.40;99.90;;;5.61;100.00;102471.59;4170499;28;20017;-76
2023/12/20 05:47:18;;;;;;;13.73;2.03;;;6.30;99.90;;;5.61;100.00;102476.84;4170228;28;20022;-76
2023/12/20 05:49:19;;;;;;;6.38;1.70;;;6.30;99.90;;;5.58;100.00;102483.09;4170320;28;20033;-76
2023/12/20 05:51:19;;;;;;;6.13;1.65;;;6.30;99.90;;;5.50;100.00;102470.41;4171128;28;20029;-76
2023/12/20 05:53:20;;;;;;;9.95;1.48;;;6.30;99.90;;;5.47;100.00;102481.03;4171210;28;20087;-76
2023/12/20 05:55:22;;;;;;;6.30;1.20;;;6.20;99.90;;;5.50;100.00;102483.47;4171347;28;20039;-76
2023/12/20 05:57:23;;;;;;;6.88;1.95;;;6.20;99.90;;;5.57;100.00;102486.63;4170166;28;20029;-76
2023/12/20 05:59:24;;;;;;;8.77;1.08;;;6.20;99.90;;;5.51;100.00;102477.31;4202971;28;20086;-76
2023/12/20 06:01:24;;;;;;;5.80;1.60;;;6.20;99.90;;;5.49;100.00;102483.56;4169938;28;20025;-76
2023/12/20 06:03:25;;;;;;;6.85;1.10;;;6.20;99.90;;;5.42;100.00;102490.91;4171171;28;20115;-76
2023/12/20 06:05:26;;;;;;;11.98;1.90;;;6.10;99.90;;;5.48;100.00;102487.97;4170973;28;20025;-76
2023/12/20 06:07:27;;;;;;;6.38;1.70;;;6.20;99.90;;;5.54;100.00;102492.88;4186330;28;20029;-76
2023/12/20 06:09:28;;;;;;;9.15;1.35;;;6.20;99.90;;;5.54;100.00;102489.41;4171048;28;20029;-76
2023/12/20 06:11:29;;;;;;;7.03;1.60;;;6.20;99.90;;;5.44;100.00;102491.66;4171178;28;20037;-76
2023/12/20 06:13:30;;;;;;;7.38;2.05;;;6.20;99.90;;;5.38;100.00;102486.75;4170423;28;20033;-76
2023/12/20 06:15:30;;;;;;;12.15;1.55;;;6.10;99.90;;;5.38;100.00;102491.13;4171064;28;20033;-76
2023/12/20 06:17:32;;;;;;;4.03;1.10;;;6.10;99.90;;;5.35;100.00;102489.50;4186009;28;20508;-76
2023/12/20 06:19:32;;;;;;;5.63;1.77;;;6.10;99.90;;;5.41;100.00;102497.03;4169793;28;20111;-76
2023/12/20 06:21:33;;;;;;;6.60;1.83;;;6.10;99.90;;;5.41;100.00;102485.72;4170445;28;20439;-76
2023/12/20 06:23:34;;;;;;;9.35;1.40;;;6.10;99.90;;;5.43;100.00;102484.75;4169711;28;20099;-76
2023/12/20 06:25:35;;;;;;;8.45;1.80;;;6.10;99.90;;;5.38;100.00;102489.34;4200102;28;20094;-76
2023/12/20 06:27:36;;;;;;;11.23;1.98;;;6.10;99.90;;;5.35;100.00;102489.50;4169727;28;20080;-76
2023/12/20 06:29:36;;;;;;;9.48;1.50;;;6.10;99.90;;;5.34;100.00;102498.31;4170696;28;20036;-76
2023/12/20 06:31:37;;;;;;;7.60;1.40;;;6.00;99.90;;;5.31;100.00;102500.22;4170660;28;20037;-76
2023/12/20 06:33:41;;;;;;;5.50;1.40;;;6.00;99.90;;;5.23;100.00;102495.38;4200820;28;20028;-76
2023/12/20 06:35:41;;;;;;;15.13;1.65;;;6.00;99.90;;;5.28;100.00;102496.00;4152983;28;20037;-76
2023/12/20 06:37:42;;;;;;;7.82;1.92;;;6.00;99.90;;;5.31;100.00;102498.47;4160943;28;20026;-76
2023/12/20 06:39:43;;;;;;;10.15;1.63;;;6.00;99.90;;;5.25;100.00;102493.56;4170588;28;20034;-76
2023/12/20 06:41:44;;;;;;;6.35;2.45;;;5.90;99.90;;;5.21;100.00;102488.53;4170296;28;20033;-76
2023/12/20 06:43:45;;;;;;;4.60;1.40;;;5.90;99.90;;;5.21;100.00;102502.47;4167103;28;20033;-76
2023/12/20 06:45:45;;;;;;;8.95;1.80;;;5.90;99.90;;;5.17;100.00;102508.78;4192417;28;20024;-76
2023/12/20 06:47:46;;;;;;;3.58;1.02;;;5.90;99.90;;;5.12;100.00;102505.56;4170485;28;20040;-76
2023/12/20 06:49:48;;;;;;;8.20;1.17;;;5.90;99.90;;;5.15;100.00;102515.88;4170411;28;20025;-76
2023/12/20 06:51:49;;;;;;;8.15;1.77;;;5.90;99.90;;;5.15;100.00;102518.47;4168229;28;20026;-76
2023/12/20 06:53:49;;;;;;;7.35;1.63;;;5.90;99.90;;;5.14;100.00;102524.63;4169124;28;20037;-76
2023/12/20 06:55:50;;;;;;;8.73;2.08;;;5.90;99.90;;;5.19;100.00;102522.63;4169071;28;20035;-76
2023/12/20 06:57:51;;;;;;;8.60;1.50;;;5.80;99.90;;;5.22;100.00;102519.88;4202280;28;20020;-76
2023/12/20 06:59:53;;;;;;;10.27;1.70;;;5.90;99.90;;;5.26;100.00;102533.63;4168978;28;20037;-76
2023/12/20 07:01:53;;;;;;;8.73;2.13;;;5.90;99.90;;;5.27;100.00;102541.41;4170389;28;20455;-76
2023/12/20 07:03:54;;;;;;;9.35;1.70;;;5.90;99.90;;;5.20;100.00;102537.41;4170192;28;20025;-76
2023/12/20 07:05:55;;;;;;;7.38;1.80;;;5.90;99.90;;;5.25;100.00;102553.72;4170015;28;20481;-76
2023/12/20 07:07:56;;;;;;;7.13;1.88;;;5.90;99.90;;;5.23;100.00;102552.94;4168980;28;20025;-76
2023/12/20 07:09:57;;;;;;;10.93;1.85;;;5.90;99.90;;;5.24;100.00;102552.03;4170234;28;20030;-76
2023/12/20 07:11:58;;;;;;;7.50;2.15;;;5.90;99.90;;;5.23;100.00;102550.31;4170256;28;20060;-76
2023/12/20 07:13:59;;;;;;;7.82;1.48;;;5.90;99.90;;;5.28;100.00;102556.19;4181477;28;20025;-76
2023/12/20 07:15:59;;;;;;;10.88;3.05;;;5.90;99.90;;;5.21;100.00;102552.19;4167887;28;20064;-76
2023/12/20 07:18:00;;;;;;;6.25;1.80;;;5.90;99.90;;;5.20;100.00;102565.31;4168440;28;20045;-77
2023/12/20 07:20:03;;;;;;;9.15;2.42;;;5.90;99.90;;;5.19;100.00;102569.72;4168807;28;20084;-77
2023/12/20 07:22:05;;;;;;;7.18;1.70;;;5.90;99.90;;;5.23;100.00;102566.00;4168622;28;20472;-77
2023/12/20 07:24:07;;;;;;;11.27;1.50;;;5.90;99.90;;;5.21;100.00;102556.56;4169830;28;20090;-76
2023/12/20 07:26:07;;;;;;;9.13;2.22;;;5.90;99.90;;;5.27;100.00;102561.47;4168890;28;20093;-77
2023/12/20 07:28:08;;;;;;;10.68;1.80;;;6.00;99.90;;;5.31;100.00;102542.94;4173784;28;20033;-77
2023/12/20 07:30:10;;;;;;;11.20;1.73;;;6.00;99.90;;;5.37;100.00;102553.09;4168624;28;20056;-76
2023/12/20 07:32:11;;;;;;;5.93;1.63;;;6.00;99.90;;;5.34;100.00;102550.66;4167393;28;20074;-76
2023/12/20 07:34:12;;;;;;;7.93;3.00;;;6.00;99.90;;;5.33;100.00;102540.25;4168667;28;20028;-76
2023/12/20 07:36:13;;;;;;;8.93;1.67;;;6.00;99.90;;;5.26;100.00;102541.47;4169729;28;20041;-76
2023/12/20 07:38:14;;;;;;;6.88;1.90;;;6.00;99.90;;;5.20;100.00;102545.25;4168601;28;20025;-76
2023/12/20 07:40:17;;;;;;;8.30;1.63;;;5.90;99.90;;;5.19;100.00;102556.66;4169615;28;20386;-76
2023/12/20 07:42:17;;;;;;;8.90;2.42;;;5.90;99.90;;;5.14;100.00;102547.34;4169999;28;20096;-75
2023/12/20 07:44:18;;;;;;;12.48;3.20;;;5.90;99.90;;;5.15;100.00;102552.50;4162559;28;20478;-76
2023/12/20 07:46:24;;;;;;;9.70;2.90;;;5.80;99.90;;;5.13;100.00;102556.97;4194750;28;20455;-76
2023/12/20 07:48:24;;;;;;;8.32;2.25;;;5.80;99.90;;;5.12;100.00;102550.03;4200835;28;20060;-76
2023/12/20 07:50:26;;;;;;;10.15;3.05;;;5.80;99.90;;;5.08;100.00;102551.09;4169371;28;20038;-76
2023/12/20 07:52:27;;;;;;;8.15;1.70;;;5.80;99.90;;;5.07;100.00;102541.56;4168312;28;20025;-76
2023/12/20 07:54:27;;;;;;;6.00;1.67;;;5.80;99.90;;;5.03;100.00;102540.03;4168372;28;20040;-76
2023/12/20 07:56:28;;;;;;;10.57;2.95;;;5.80;99.90;;;5.06;100.00;102539.88;4169350;28;20378;-76
2023/12/20 07:58:31;;;;;;;8.13;2.53;;;5.70;99.90;;;5.04;100.00;102539.09;4169480;28;20071;-76
2023/12/20 08:00:31;;;;;;;8.10;3.10;;;5.70;99.90;;;5.04;100.00;102541.72;4201013;28;20122;-76
2023/12/20 08:02:32;;;;;;;10.50;2.80;;;5.70;99.90;;;5.09;100.00;102549.31;4168188;28;20436;-76
2023/12/20 08:04:33;;;;;;;9.50;2.40;;;5.70;99.90;;;5.09;100.00;102546.72;4169215;28;20026;-76
2023/12/20 08:06:34;;;;;;;7.03;2.22;;;5.70;99.90;;;5.07;100.00;102540.72;4167806;28;20014;-77
2023/12/20 08:08:35;;;;;;;7.85;2.80;;;5.70;99.90;;;5.04;100.00;102544.34;4169381;28;20026;-77
2023/12/20 08:10:36;;;;;;;11.95;2.92;;;5.70;99.90;;;5.02;100.00;102544.41;4184493;28;20017;-76
2023/12/20 08:12:37;;;;;;;10.00;3.35;;;5.70;99.90;;;5.01;100.00;102545.34;4168089;28;20036;-76
2023/12/20 08:14:38;;;;;;;9.55;3.25;;;5.70;99.90;;;5.05;100.00;102545.19;4169207;28;20570;-76
2023/12/20 08:16:39;;;;;;;7.07;2.70;;;5.70;99.90;;;5.10;100.00;102543.19;4169110;28;20025;-77
2023/12/20 08:18:40;;;;;;;8.68;2.50;;;5.70;99.90;;;5.23;100.00;102550.31;4169109;28;20037;-76
2023/12/20 08:20:41;;;;;;;13.80;2.75;;;5.80;99.90;;;5.32;100.00;102539.38;4168925;28;20053;-76
2023/12/20 08:22:42;;;;;;;8.68;2.42;;;5.90;99.90;;;5.39;100.00;102539.94;4169011;28;20444;-77
2023/12/20 08:24:42;;;;;;;15.90;3.00;;;6.00;99.90;;;5.50;100.00;102542.81;4165602;28;20025;-77
2023/12/20 08:26:43;;;;;;;11.20;2.65;;;6.10;99.90;;;5.55;100.00;102539.03;4169093;28;20033;-77
2023/12/20 08:28:44;;;;;;;9.50;2.50;;;6.20;99.90;;;5.64;100.00;102537.75;4167690;28;20503;-77